createdAt,value
2022-12-14T00:00:04.630Z,22.27
2022-12-14T00:02:31.216Z,19.37
2022-12-14T00:04:57.674Z,25.03
2022-12-14T00:07:24.090Z,23.93
2022-12-14T00:09:50.435Z,18.67
2022-12-14T00:12:16.859Z,21.60
2022-12-14T00:14:43.200Z,23.87
2022-12-14T00:17:09.588Z,21.17
2022-12-14T00:19:36.195Z,19.87
2022-12-14T00:22:02.762Z,22.10
2022-12-14T00:24:29.203Z,19.47
2022-12-14T00:26:55.587Z,23.37
2022-12-14T00:29:22.015Z,21.13
2022-12-14T00:31:49.572Z,19.93
2022-12-14T00:34:16.033Z,22.60
2022-12-14T00:36:42.564Z,22.73
2022-12-14T00:39:09.022Z,21.73
2022-12-14T00:41:35.440Z,21.90
2022-12-14T00:44:01.996Z,23.27
2022-12-14T00:46:28.484Z,19.97
2022-12-14T00:48:54.859Z,21.13
2022-12-14T00:51:21.215Z,24.37
2022-12-14T00:53:47.621Z,19.60
2022-12-14T00:56:13.994Z,22.30
2022-12-14T00:58:40.526Z,18.83
2022-12-14T01:01:10.215Z,22.13
2022-12-14T01:03:36.842Z,19.73
2022-12-14T01:06:03.742Z,21.83
2022-12-14T01:08:30.589Z,23.43
2022-12-14T01:10:56.911Z,20.97
2022-12-14T01:13:23.304Z,19.73
2022-12-14T01:15:49.866Z,22.77
2022-12-14T01:18:16.754Z,25.87
2022-12-14T01:20:43.407Z,22.73
2022-12-14T01:23:09.825Z,23.27
2022-12-14T01:25:36.278Z,26.57
2022-12-14T01:28:02.678Z,26.77
2022-12-14T01:30:29.326Z,23.77
2022-12-14T01:32:55.695Z,28.47
2022-12-14T01:35:22.307Z,25.27
2022-12-14T01:37:49.124Z,28.83
2022-12-14T01:40:16.118Z,25.10
2022-12-14T01:42:42.484Z,23.23
2022-12-14T01:45:19.358Z,26.57
2022-12-14T01:47:53.719Z,24.27
2022-12-14T01:50:34.267Z,28.80
2022-12-14T01:53:12.043Z,22.92
2022-12-14T01:55:42.720Z,24.73
2022-12-14T01:58:24.174Z,27.50
2022-12-14T02:00:54.496Z,20.80
2022-12-14T02:03:28.778Z,25.60
2022-12-14T02:06:07.004Z,24.30
2022-12-14T02:08:33.671Z,25.70
2022-12-14T02:11:02.122Z,25.27
2022-12-14T02:13:34.172Z,25.30
2022-12-14T02:16:01.089Z,25.67
2022-12-14T02:18:30.359Z,23.27
2022-12-14T02:21:17.974Z,23.17
2022-12-14T02:24:09.208Z,26.67
2022-12-14T02:26:54.925Z,23.37
2022-12-14T02:29:43.432Z,29.97
2022-12-14T02:32:24.761Z,24.87
2022-12-14T02:35:01.347Z,22.23
2022-12-14T02:37:27.748Z,23.27
2022-12-14T02:40:12.351Z,25.43
2022-12-14T02:42:54.420Z,26.47
2022-12-14T02:45:30.969Z,26.67
2022-12-14T02:48:06.946Z,25.00
2022-12-14T02:50:48.361Z,27.27
2022-12-14T02:53:20.458Z,24.87
2022-12-14T02:55:57.724Z,27.03
2022-12-14T02:58:29.203Z,26.53
2022-12-14T03:00:56.754Z,29.37
2022-12-14T03:03:23.952Z,26.77
2022-12-14T03:06:02.336Z,27.17
2022-12-14T03:08:33.360Z,27.93
2022-12-14T03:11:06.223Z,27.10
2022-12-14T03:13:32.618Z,24.60
2022-12-14T03:16:14.709Z,28.23
2022-12-14T03:18:45.874Z,27.57
2022-12-14T03:21:16.697Z,27.00
2022-12-14T03:26:21.676Z,26.13
2022-12-14T03:28:53.777Z,29.33
2022-12-14T03:31:49.147Z,31.43
2022-12-14T03:34:19.206Z,28.73
2022-12-14T03:36:54.053Z,34.22
2022-12-14T03:39:29.394Z,34.23
2022-12-14T03:42:21.305Z,32.83
2022-12-14T03:45:22.962Z,32.63
2022-12-14T03:47:55.467Z,30.37
2022-12-14T03:50:30.970Z,33.30
2022-12-14T03:53:07.262Z,29.90
2022-12-14T03:55:41.398Z,30.17
2022-12-14T03:58:35.902Z,28.17
2022-12-14T04:01:14.175Z,29.17
2022-12-14T04:03:56.331Z,32.20
2022-12-14T04:06:41.179Z,29.00
2022-12-14T04:09:36.850Z,30.03
2022-12-14T04:12:29.125Z,30.83
2022-12-14T04:15:03.323Z,35.20
2022-12-14T04:17:34.262Z,32.90
2022-12-14T04:20:24.389Z,30.17
2022-12-14T04:23:02.442Z,26.30
2022-12-14T04:25:35.388Z,32.03
2022-12-14T04:28:20.254Z,30.10
2022-12-14T04:30:46.843Z,31.63
2022-12-14T04:33:14.515Z,27.97
2022-12-14T04:35:42.624Z,32.47
2022-12-14T04:38:35.031Z,31.93
2022-12-14T04:41:06.987Z,32.67
2022-12-14T04:43:38.887Z,30.17
2022-12-14T04:46:07.195Z,31.03
2022-12-14T04:48:47.262Z,29.93
2022-12-14T04:51:30.370Z,30.17
2022-12-14T04:54:08.853Z,30.07
2022-12-14T04:56:51.326Z,27.87
2022-12-14T04:59:17.796Z,32.57
2022-12-14T05:02:06.237Z,29.33
2022-12-14T05:04:46.779Z,29.57
2022-12-14T05:07:51.638Z,30.77
2022-12-14T05:10:30.183Z,30.30
2022-12-14T05:13:05.044Z,30.43
2022-12-14T05:15:45.576Z,29.60
2022-12-14T05:18:12.278Z,33.25
2022-12-14T05:20:38.664Z,32.60
2022-12-14T05:23:05.050Z,31.30
2022-12-14T05:25:31.509Z,32.43
2022-12-14T05:27:57.976Z,33.10
2022-12-14T05:30:24.640Z,28.77
2022-12-14T05:32:51.144Z,31.27
2022-12-14T05:35:17.737Z,34.50
2022-12-14T05:37:44.354Z,33.30
2022-12-14T05:40:11.402Z,32.27
2022-12-14T05:42:44.145Z,31.87
2022-12-14T05:45:12.956Z,31.20
2022-12-14T05:47:40.174Z,31.47
2022-12-14T05:50:07.259Z,28.23
2022-12-14T05:52:34.060Z,30.97
2022-12-14T05:55:04.437Z,29.57
2022-12-14T05:57:31.447Z,28.38
2022-12-14T05:59:57.840Z,32.60
2022-12-14T06:02:24.650Z,28.80
2022-12-14T06:04:51.243Z,30.93
2022-12-14T06:07:19.052Z,33.80
2022-12-14T06:09:47.135Z,30.27
2022-12-14T06:12:13.794Z,32.93
2022-12-14T06:14:40.364Z,32.37
2022-12-14T06:17:06.898Z,32.47
2022-12-14T06:19:33.291Z,44.43
2022-12-14T06:21:59.605Z,27.07
2022-12-14T06:24:26.052Z,32.83
2022-12-14T06:26:52.527Z,37.13
2022-12-14T06:29:20.022Z,35.40
2022-12-14T06:31:49.288Z,29.90
2022-12-14T06:34:16.810Z,32.80
2022-12-14T06:36:43.234Z,32.83
2022-12-14T06:39:15.722Z,32.03
2022-12-14T06:41:42.851Z,34.63
2022-12-14T06:44:14.007Z,33.23
2022-12-14T06:46:41.562Z,46.47
2022-12-14T06:49:11.531Z,41.87
2022-12-14T06:51:39.612Z,37.13
2022-12-14T06:54:06.820Z,34.60
2022-12-14T06:56:33.231Z,32.53
2022-12-14T06:58:59.841Z,34.67
2022-12-14T07:01:26.527Z,31.20
2022-12-14T07:03:57.088Z,33.23
2022-12-14T07:06:25.375Z,32.53
2022-12-14T07:08:57.360Z,33.47
2022-12-14T07:11:29.214Z,31.43
2022-12-14T07:13:56.465Z,37.80
2022-12-14T07:16:25.182Z,38.77
2022-12-14T07:18:53.385Z,37.30
2022-12-14T07:21:20.813Z,37.53
2022-12-14T07:23:48.808Z,36.73
2022-12-14T07:26:16.346Z,40.33
2022-12-14T07:28:43.648Z,37.03
2022-12-14T07:31:12.933Z,37.57
2022-12-14T07:33:39.719Z,41.03
2022-12-14T07:36:11.932Z,39.23
2022-12-14T07:38:40.446Z,36.80
2022-12-14T07:41:15.517Z,38.17
2022-12-14T07:43:45.809Z,37.00
2022-12-14T07:48:49.303Z,44.43
2022-12-14T07:51:18.301Z,35.30
2022-12-14T07:53:44.956Z,39.90
2022-12-14T07:56:14.177Z,39.77
2022-12-14T07:58:41.156Z,45.60
2022-12-14T08:01:17.381Z,41.20
2022-12-14T08:03:46.145Z,38.37
2022-12-14T08:06:13.921Z,42.03
2022-12-14T08:08:40.551Z,38.50
2022-12-14T08:11:07.683Z,41.37
2022-12-14T08:13:35.225Z,37.10
2022-12-14T08:16:03.904Z,39.23
2022-12-14T08:18:30.737Z,39.43
2022-12-14T08:20:57.180Z,36.43
2022-12-14T08:23:23.929Z,44.37
2022-12-14T08:25:54.698Z,37.50
2022-12-14T08:28:21.944Z,39.25
2022-12-14T08:30:48.579Z,39.47
2022-12-14T08:33:15.372Z,41.03
2022-12-14T08:35:41.820Z,39.83
2022-12-14T08:38:08.313Z,34.60
2022-12-14T08:40:36.105Z,39.80
2022-12-14T08:43:02.623Z,43.47
2022-12-14T08:45:29.037Z,36.53
2022-12-14T08:47:59.007Z,35.90
2022-12-14T08:50:26.600Z,38.40
2022-12-14T08:52:53.674Z,41.00
2022-12-14T08:55:25.713Z,39.10
2022-12-14T08:57:55.000Z,41.90
2022-12-14T09:00:21.350Z,38.10
2022-12-14T09:02:50.314Z,38.23
2022-12-14T09:05:16.956Z,37.97
2022-12-14T09:07:43.383Z,35.60
2022-12-14T09:10:09.923Z,41.63
2022-12-14T09:12:36.564Z,36.53
2022-12-14T09:15:03.106Z,36.27
2022-12-14T09:17:29.577Z,41.43
2022-12-14T09:19:56.060Z,39.47
2022-12-14T09:22:22.460Z,43.17
2022-12-14T09:24:48.986Z,40.93
2022-12-14T09:27:15.300Z,36.73
2022-12-14T09:29:41.808Z,44.33
2022-12-14T09:32:08.265Z,42.97
2022-12-14T09:34:34.601Z,44.43
2022-12-14T09:37:01.051Z,42.40
2022-12-14T09:39:28.078Z,41.63
2022-12-14T09:42:16.057Z,44.30
2022-12-14T09:44:56.242Z,43.77
2022-12-14T09:47:37.995Z,35.35
2022-12-14T09:50:11.033Z,44.17
2022-12-14T09:52:45.353Z,44.50
2022-12-14T09:55:41.345Z,40.67
2022-12-14T09:58:18.942Z,45.47
2022-12-14T10:01:04.139Z,50.40
2022-12-14T10:03:51.836Z,48.20
2022-12-14T10:06:51.007Z,52.43
2022-12-14T10:09:30.776Z,51.77
2022-12-14T10:12:16.554Z,50.97
2022-12-14T10:15:20.821Z,50.60
2022-12-14T10:17:55.981Z,52.70
2022-12-14T10:20:47.929Z,46.40
2022-12-14T10:23:22.778Z,57.50
2022-12-14T10:25:54.102Z,57.13
2022-12-14T10:30:52.513Z,54.57
2022-12-14T10:33:26.643Z,57.80
2022-12-14T10:35:55.468Z,63.70
2022-12-14T10:38:36.794Z,58.70
2022-12-14T10:41:23.204Z,59.87
2022-12-14T10:44:11.137Z,61.90
2022-12-14T10:46:40.358Z,61.10
2022-12-14T10:49:22.394Z,57.77
2022-12-14T10:52:00.138Z,53.43
2022-12-14T10:54:33.826Z,61.83
2022-12-14T10:57:01.003Z,56.73
2022-12-14T10:59:43.766Z,58.30
2022-12-14T11:02:28.162Z,54.40
2022-12-14T11:04:58.279Z,53.70
2022-12-14T11:07:33.706Z,56.33
2022-12-14T11:10:27.854Z,55.03
2022-12-14T11:13:12.757Z,54.73
2022-12-14T11:15:45.128Z,54.63
2022-12-14T11:18:17.913Z,52.60
2022-12-14T11:20:59.843Z,56.40
2022-12-14T11:23:30.691Z,66.77
2022-12-14T11:28:37.392Z,62.00
2022-12-14T11:31:14.214Z,56.33
2022-12-14T11:33:50.317Z,61.13
2022-12-14T11:36:34.030Z,55.97
2022-12-14T11:39:01.615Z,58.03
2022-12-14T11:41:36.663Z,56.40
2022-12-14T11:44:23.485Z,62.33
2022-12-14T11:46:53.920Z,55.83
2022-12-14T11:49:47.919Z,53.28
2022-12-14T11:52:15.888Z,67.07
2022-12-14T11:54:49.876Z,56.27
2022-12-14T11:57:30.513Z,60.67
2022-12-14T12:00:20.536Z,59.15
2022-12-14T12:03:39.696Z,54.65
2022-12-14T12:06:09.621Z,50.53
2022-12-14T12:08:39.633Z,56.90
2022-12-14T12:11:24.333Z,57.88
2022-12-14T12:13:56.933Z,64.67
2022-12-14T12:16:26.596Z,65.23
2022-12-14T12:19:11.641Z,59.17
2022-12-14T12:21:43.879Z,55.23
2022-12-14T12:24:20.693Z,60.10
2022-12-14T12:27:02.899Z,61.77
2022-12-14T12:29:35.271Z,58.53
2022-12-14T12:32:10.325Z,61.13
2022-12-14T12:34:45.829Z,59.90
2022-12-14T12:37:31.268Z,57.43
2022-12-14T12:40:03.494Z,62.27
2022-12-14T12:42:45.325Z,56.10
2022-12-14T12:45:27.177Z,60.07
2022-12-14T12:48:01.567Z,60.90
2022-12-14T12:50:35.939Z,54.87
2022-12-14T12:53:17.273Z,61.27
2022-12-14T12:55:55.271Z,59.13
2022-12-14T12:58:32.195Z,56.93
2022-12-14T13:01:04.632Z,50.73
2022-12-14T13:03:42.352Z,59.70
2022-12-14T13:06:21.874Z,58.20
2022-12-14T13:08:53.387Z,55.80
2022-12-14T13:11:27.008Z,61.60
2022-12-14T13:14:00.350Z,63.80
2022-12-14T13:16:34.972Z,75.23
2022-12-14T13:19:50.243Z,75.77
2022-12-14T13:22:27.775Z,71.53
2022-12-14T13:24:59.484Z,70.77
2022-12-14T13:27:53.641Z,76.60
2022-12-14T13:30:43.056Z,65.93
2022-12-14T13:33:41.176Z,79.60
2022-12-14T13:36:45.707Z,70.73
2022-12-14T13:39:22.602Z,77.73
2022-12-14T13:42:07.243Z,72.20
2022-12-14T13:44:44.708Z,66.00
2022-12-14T13:47:15.366Z,76.00
2022-12-14T13:50:05.192Z,71.40
2022-12-14T13:52:43.150Z,74.67
2022-12-14T13:55:31.036Z,71.83
2022-12-14T13:58:34.700Z,73.20
2022-12-14T14:01:04.770Z,65.57
2022-12-14T14:03:34.010Z,62.53
2022-12-14T14:06:01.587Z,77.70
2022-12-14T14:08:39.324Z,63.00
2022-12-14T14:11:36.569Z,69.33
2022-12-14T14:14:18.412Z,55.40
2022-12-14T14:16:50.026Z,62.88
2022-12-14T14:19:22.143Z,64.93
2022-12-14T14:22:26.597Z,57.03
2022-12-14T14:25:00.951Z,60.97
2022-12-14T14:27:50.793Z,57.50
2022-12-14T14:30:32.746Z,59.70
2022-12-14T14:33:20.426Z,51.07
2022-12-14T14:35:49.800Z,55.87
2022-12-14T14:38:30.950Z,65.13
2022-12-14T14:41:18.804Z,59.80
2022-12-14T14:43:55.582Z,59.50
2022-12-14T14:46:34.680Z,63.67
2022-12-14T14:49:01.582Z,65.13
2022-12-14T14:51:33.109Z,68.10
2022-12-14T14:54:46.277Z,64.40
2022-12-14T14:57:52.705Z,71.93
2022-12-14T15:00:19.251Z,77.33
2022-12-14T15:02:46.302Z,85.00
2022-12-14T15:05:41.565Z,88.70
2022-12-14T15:08:11.640Z,85.97
2022-12-14T15:10:42.794Z,79.57
2022-12-14T15:13:20.705Z,75.37
2022-12-14T15:15:52.069Z,67.07
2022-12-14T15:18:25.745Z,77.30
2022-12-14T15:21:12.639Z,73.37
2022-12-14T15:23:44.097Z,76.00
2022-12-14T15:26:23.588Z,71.57
2022-12-14T15:28:52.546Z,80.80
2022-12-14T15:31:28.730Z,64.00
2022-12-14T15:33:56.087Z,62.83
2022-12-14T15:36:33.350Z,66.47
2022-12-14T15:39:00.088Z,58.17
2022-12-14T15:41:29.946Z,63.80
2022-12-14T15:44:00.118Z,59.10
2022-12-14T15:46:33.533Z,57.55
2022-12-14T15:49:04.346Z,63.63
2022-12-14T15:51:34.493Z,57.63
2022-12-14T15:54:03.387Z,52.47
2022-12-14T15:56:44.750Z,62.53
2022-12-14T15:59:18.288Z,55.87
2022-12-14T16:01:53.524Z,75.20
2022-12-14T16:04:23.327Z,58.90
2022-12-14T16:07:01.712Z,52.93
2022-12-14T16:09:40.201Z,63.10
2022-12-14T16:12:18.337Z,58.77
2022-12-14T16:14:53.823Z,57.37
2022-12-14T16:17:28.226Z,51.83
2022-12-14T16:20:09.404Z,53.20
2022-12-14T16:22:41.337Z,50.97
2022-12-14T16:25:07.721Z,53.90
2022-12-14T16:27:39.844Z,51.27
2022-12-14T16:30:17.329Z,51.03
2022-12-14T16:32:49.801Z,47.93
2022-12-14T16:35:23.206Z,58.60
2022-12-14T16:37:52.476Z,53.77
2022-12-14T16:40:32.137Z,58.13
2022-12-14T16:42:58.724Z,49.30
2022-12-14T16:46:00.413Z,60.33
2022-12-14T16:48:26.930Z,56.93
2022-12-14T16:51:28.628Z,54.30
2022-12-14T16:54:02.645Z,55.77
2022-12-14T16:56:45.058Z,59.83
2022-12-14T16:59:48.475Z,59.93
2022-12-14T17:02:30.149Z,58.70
2022-12-14T17:04:58.622Z,60.73
2022-12-14T17:07:27.552Z,58.70
2022-12-14T17:09:54.617Z,60.87
2022-12-14T17:12:21.120Z,53.23
2022-12-14T17:14:49.993Z,62.17
2022-12-14T17:17:22.394Z,53.57
2022-12-14T17:19:49.216Z,53.93
2022-12-14T17:22:21.972Z,55.73
2022-12-14T17:24:48.407Z,50.33
2022-12-14T17:27:17.517Z,58.47
2022-12-14T17:29:44.531Z,54.93
2022-12-14T17:32:12.993Z,54.57
2022-12-14T17:34:39.910Z,51.23
2022-12-14T17:37:17.175Z,55.70
2022-12-14T17:39:44.575Z,53.73
2022-12-14T17:42:13.371Z,53.93
2022-12-14T17:44:41.883Z,59.70
2022-12-14T17:47:13.318Z,55.67
2022-12-14T17:49:40.404Z,54.20
2022-12-14T17:52:07.555Z,51.33
2022-12-14T17:54:34.277Z,50.00
2022-12-14T17:57:01.160Z,55.50
2022-12-14T17:59:28.084Z,59.03
2022-12-14T18:01:54.612Z,57.73
2022-12-14T18:04:21.052Z,52.10
2022-12-14T18:06:47.472Z,52.73
2022-12-14T18:09:14.004Z,55.40
2022-12-14T18:12:00.165Z,53.27
2022-12-14T18:14:26.910Z,52.37
2022-12-14T18:16:53.370Z,53.60
2022-12-14T18:19:20.092Z,54.07
2022-12-14T18:21:46.728Z,55.67
2022-12-14T18:24:15.351Z,55.90
2022-12-14T18:26:41.947Z,55.80
2022-12-14T18:29:08.337Z,55.53
2022-12-14T18:31:37.433Z,55.27
2022-12-14T18:34:04.680Z,52.10
2022-12-14T18:36:31.446Z,90.00
2022-12-14T18:38:57.839Z,86.93
2022-12-14T18:41:26.132Z,74.07
2022-12-14T18:43:52.805Z,60.00
2022-12-14T18:46:19.272Z,57.03
2022-12-14T18:48:46.102Z,58.77
2022-12-14T18:51:14.273Z,61.07
2022-12-14T18:53:40.942Z,59.40
2022-12-14T18:56:09.520Z,56.80
2022-12-14T18:58:36.482Z,61.63
2022-12-14T19:01:03.082Z,54.93
2022-12-14T19:03:32.560Z,55.57
2022-12-14T19:06:34.761Z,53.80
2022-12-14T19:08:51.827Z,59.93
2022-12-14T19:11:31.386Z,59.53
2022-12-14T19:13:58.318Z,60.17
2022-12-14T19:16:25.100Z,68.47
2022-12-14T19:18:51.931Z,61.93
2022-12-14T19:21:19.022Z,61.97
2022-12-14T19:23:47.409Z,58.30
2022-12-14T19:26:14.141Z,60.87
2022-12-14T19:28:40.500Z,59.53
2022-12-14T19:31:10.309Z,63.27
2022-12-14T19:33:37.225Z,64.00
2022-12-14T19:36:08.387Z,63.30
2022-12-14T19:38:35.650Z,52.53
2022-12-14T19:41:06.594Z,49.63
2022-12-14T19:43:34.420Z,53.70
2022-12-14T19:46:06.170Z,52.07
2022-12-14T19:48:32.679Z,56.90
2022-12-14T19:51:03.537Z,59.17
2022-12-14T19:56:00.555Z,60.65
2022-12-14T19:58:28.260Z,72.50
2022-12-14T20:00:54.904Z,61.27
2022-12-14T20:03:22.441Z,49.23
2022-12-14T20:05:57.353Z,51.33
2022-12-14T20:08:24.503Z,45.17
2022-12-14T20:10:52.145Z,50.53
2022-12-14T20:13:18.844Z,50.60
2022-12-14T20:15:51.213Z,52.63
2022-12-14T20:18:18.350Z,46.40
2022-12-14T20:20:45.668Z,51.63
2022-12-14T20:23:16.396Z,53.90
2022-12-14T20:25:42.922Z,50.37
2022-12-14T20:28:09.423Z,50.07
2022-12-14T20:30:41.322Z,57.13
2022-12-14T20:33:07.652Z,53.10
2022-12-14T20:35:34.184Z,48.30
2022-12-14T20:38:00.564Z,51.27
2022-12-14T20:40:27.127Z,52.10
2022-12-14T20:42:54.251Z,48.77
2022-12-14T20:45:20.663Z,49.17
2022-12-14T20:47:47.209Z,46.73
2022-12-14T20:50:13.710Z,45.50
2022-12-14T20:52:40.279Z,48.33
2022-12-14T20:55:07.179Z,47.20
2022-12-14T20:57:33.710Z,44.53
2022-12-14T21:00:00.153Z,51.50
2022-12-14T21:02:26.772Z,53.60
2022-12-14T21:04:53.447Z,46.47
2022-12-14T21:07:24.381Z,49.13
2022-12-14T21:09:53.356Z,55.17
2022-12-14T21:12:19.658Z,44.77
2022-12-14T21:14:46.567Z,50.70
2022-12-14T21:17:15.091Z,48.37
2022-12-14T21:19:41.692Z,54.37
2022-12-14T21:22:12.183Z,50.50
2022-12-14T21:27:28.336Z,57.47
2022-12-14T21:29:54.727Z,51.63
2022-12-14T21:32:22.130Z,52.10
2022-12-14T21:34:49.378Z,53.23
2022-12-14T21:37:16.096Z,51.53
2022-12-14T21:39:51.929Z,55.97
2022-12-14T21:42:20.251Z,54.03
2022-12-14T21:44:48.788Z,52.93
2022-12-14T21:47:24.650Z,44.93
2022-12-14T21:49:51.321Z,55.47
2022-12-14T21:52:20.419Z,51.33
2022-12-14T21:54:46.928Z,50.90
2022-12-14T21:57:24.115Z,50.43
2022-12-14T21:59:50.659Z,49.17
2022-12-14T22:02:20.208Z,51.37
2022-12-14T22:04:47.181Z,52.80
2022-12-14T22:07:20.540Z,51.00
2022-12-14T22:09:49.677Z,54.03
2022-12-14T22:12:18.431Z,48.30
2022-12-14T22:14:44.814Z,50.97
2022-12-14T22:17:12.783Z,49.13
2022-12-14T22:19:39.207Z,51.57
2022-12-14T22:22:05.796Z,56.83
2022-12-14T22:24:32.321Z,49.57
2022-12-14T22:26:58.973Z,49.93
2022-12-14T22:29:27.092Z,49.97
2022-12-14T22:31:53.600Z,52.73
2022-12-14T22:34:22.451Z,53.67
2022-12-14T22:36:50.269Z,51.63
2022-12-14T22:39:18.134Z,51.17
2022-12-14T22:41:44.725Z,51.60
2022-12-14T22:44:12.288Z,51.03
2022-12-14T22:46:41.462Z,55.23
2022-12-14T22:49:08.344Z,53.77
2022-12-14T22:51:34.807Z,55.20
2022-12-14T22:54:01.180Z,51.80
2022-12-14T22:56:42.083Z,54.40
2022-12-14T23:01:49.647Z,51.57
2022-12-14T23:04:17.536Z,58.17
2022-12-14T23:06:44.859Z,54.10
2022-12-14T23:09:11.272Z,53.13
2022-12-14T23:11:37.695Z,57.03
2022-12-14T23:14:04.178Z,57.67
2022-12-14T23:16:30.501Z,55.90
2022-12-14T23:18:56.901Z,53.63
2022-12-14T23:21:23.256Z,57.83
2022-12-14T23:23:49.680Z,55.90
2022-12-14T23:26:16.119Z,51.00
2022-12-14T23:28:42.523Z,47.93
2022-12-14T23:31:10.790Z,50.73
2022-12-14T23:33:37.812Z,53.47
2022-12-14T23:36:04.578Z,53.97
2022-12-14T23:38:30.914Z,51.70
2022-12-14T23:41:01.956Z,54.90
2022-12-14T23:43:28.837Z,50.63
2022-12-14T23:45:55.710Z,54.43
2022-12-14T23:48:22.373Z,54.47
2022-12-14T23:50:48.891Z,55.87
2022-12-14T23:53:15.537Z,53.27
2022-12-14T23:55:42.249Z,60.90
2022-12-14T23:58:08.618Z,59.30
